Estación Meteorológica Peña el Pijo (Robertgarden) [ 02/02/23 20:49:18 CET ]

Fecha Hora Presion(HPa) Temp (°C) Humedad % Rocio (°C) Viento ( m/s) Direccion Lluvia 1Hora(mm) Lluvia 24H(mm) LLuvia Total(mm)
2010-Sep-27 01:01:12 1008.200 7.8 77 4.0         160.58
2010-Sep-27 02:01:13 1008.100 6.8 80 3.6         160.58
2010-Sep-27 03:04:17 1008.200 6.7 82 3.8         160.58
2010-Sep-27 04:01:17 1007.800 6.4 82 3.5         160.58
2010-Sep-27 05:01:17 1007.700 5.7 85 3.4         160.58
2010-Sep-27 06:01:14 1007.600 5.6 86 3.4         160.58
2010-Sep-27 07:01:19 1007.700 5.1 87 3.1         160.58
2010-Sep-27 08:01:20 1008.000 5.1 88 3.3         160.58
2010-Sep-27 09:01:19 1008.200 5.5 89 3.8         160.58
2010-Sep-27 10:01:21 1008.100 13.5 73 8.7         160.58
2010-Sep-27 11:01:16 1008.200 19.1 55 9.8         160.58
2010-Sep-27 12:01:14 1008.100 23.4 42 9.7         160.58
2010-Sep-27 13:01:13 1008.000 22.5 39 7.8         160.58
2010-Sep-27 14:01:17 1007.700 22.3 39 7.7         160.58
2010-Sep-27 15:01:12 1007.000 24.2 36 8.1         160.58
2010-Sep-27 16:01:16 1006.900 24.5 33 7.1         160.58
2010-Sep-27 17:01:12 1006.900 21.2 42 7.7         160.58
2010-Sep-27 18:01:19 1007.300 19.3 49 8.3         160.58
2010-Sep-27 19:01:16 1007.500 18.1 50 7.5         160.58
2010-Sep-27 20:01:13 1007.600 17.6 53 7.8         160.58
2010-Sep-27 21:01:18 1008.100 16.8 55 7.7         160.58
2010-Sep-27 22:01:11 1008.700 15.6 58 7.4         160.58
2010-Sep-27 23:01:16 1009.100 15.5 55 6.5         160.58

Temperatura Máxima:24°    Temperatura Mínima:
Presión Máxima:1009.100 Hpa    Presión Mínima:1006.900 Hpa


Volver